sensor_id;sensor_type;location;lat;lon;timestamp;pressure;altitude;pressure_sealevel;temperature;humidity
74334;BME280;62753;40.394;-80.022;2023-08-31T00:01:38;97046.58;;;21.95;39.78
74334;BME280;62753;40.394;-80.022;2023-08-31T00:04:03;97053.57;;;21.17;41.25
74334;BME280;62753;40.394;-80.022;2023-08-31T00:06:28;97055.21;;;20.94;42.07
74334;BME280;62753;40.394;-80.022;2023-08-31T00:08:53;97055.24;;;20.73;42.24
74334;BME280;62753;40.394;-80.022;2023-08-31T00:11:19;97058.40;;;20.93;42.44
74334;BME280;62753;40.394;-80.022;2023-08-31T00:13:44;97067.79;;;21.03;42.65
74334;BME280;62753;40.394;-80.022;2023-08-31T00:16:09;97069.40;;;20.77;42.96
74334;BME280;62753;40.394;-80.022;2023-08-31T00:18:35;97072.09;;;20.65;43.68
74334;BME280;62753;40.394;-80.022;2023-08-31T00:21:00;97065.80;;;20.50;44.10
74334;BME280;62753;40.394;-80.022;2023-08-31T00:23:25;97068.85;;;19.95;44.90
74334;BME280;62753;40.394;-80.022;2023-08-31T00:25:50;97069.06;;;21.32;42.52
74334;BME280;62753;40.394;-80.022;2023-08-31T00:28:15;97076.49;;;21.29;42.45
74334;BME280;62753;40.394;-80.022;2023-08-31T00:30:41;97080.38;;;20.99;42.48
74334;BME280;62753;40.394;-80.022;2023-08-31T00:33:06;97086.30;;;21.53;40.74
74334;BME280;62753;40.394;-80.022;2023-08-31T00:35:33;97096.15;;;20.59;43.20
74334;BME280;62753;40.394;-80.022;2023-08-31T00:37:56;97097.49;;;21.67;41.22
74334;BME280;62753;40.394;-80.022;2023-08-31T00:40:21;97099.45;;;22.57;39.61
74334;BME280;62753;40.394;-80.022;2023-08-31T00:42:47;97106.32;;;22.92;38.39
74334;BME280;62753;40.394;-80.022;2023-08-31T00:45:12;97108.27;;;22.81;38.79
74334;BME280;62753;40.394;-80.022;2023-08-31T00:47:37;97108.18;;;21.42;41.27
74334;BME280;62753;40.394;-80.022;2023-08-31T00:50:03;97108.50;;;22.55;39.52
74334;BME280;62753;40.394;-80.022;2023-08-31T00:52:27;97107.89;;;21.72;41.53
74334;BME280;62753;40.394;-80.022;2023-08-31T00:54:54;97114.33;;;21.20;42.51
74334;BME280;62753;40.394;-80.022;2023-08-31T00:57:18;97120.02;;;21.53;42.33
74334;BME280;62753;40.394;-80.022;2023-08-31T00:59:43;97123.09;;;20.01;45.20
74334;BME280;62753;40.394;-80.022;2023-08-31T01:02:15;97125.38;;;19.90;46.32
74334;BME280;62753;40.394;-80.022;2023-08-31T01:04:41;97125.50;;;20.21;47.01
74334;BME280;62753;40.394;-80.022;2023-08-31T01:07:04;97121.16;;;19.87;46.89
74334;BME280;62753;40.394;-80.022;2023-08-31T01:09:31;97116.05;;;20.27;45.64
74334;BME280;62753;40.394;-80.022;2023-08-31T01:11:57;97110.56;;;19.95;47.05
74334;BME280;62753;40.394;-80.022;2023-08-31T01:14:17;97111.11;;;19.77;47.87
74334;BME280;62753;40.394;-80.022;2023-08-31T01:16:42;97123.54;;;19.93;48.17
74334;BME280;62753;40.394;-80.022;2023-08-31T01:19:10;97124.23;;;19.88;47.78
74334;BME280;62753;40.394;-80.022;2023-08-31T01:21:36;97117.91;;;20.73;45.42
74334;BME280;62753;40.394;-80.022;2023-08-31T01:23:57;97127.25;;;19.44;48.01
74334;BME280;62753;40.394;-80.022;2023-08-31T01:26:22;97130.10;;;20.34;46.84
74334;BME280;62753;40.394;-80.022;2023-08-31T01:28:47;97135.94;;;20.16;47.90
74334;BME280;62753;40.394;-80.022;2023-08-31T01:31:12;97137.04;;;20.08;47.48
74334;BME280;62753;40.394;-80.022;2023-08-31T01:33:37;97139.49;;;19.97;49.03
74334;BME280;62753;40.394;-80.022;2023-08-31T01:36:07;97139.25;;;18.60;51.60
74334;BME280;62753;40.394;-80.022;2023-08-31T01:38:29;97143.94;;;19.66;49.66
74334;BME280;62753;40.394;-80.022;2023-08-31T01:40:56;97145.57;;;20.06;48.56
74334;BME280;62753;40.394;-80.022;2023-08-31T01:43:18;97146.34;;;20.04;47.92
74334;BME280;62753;40.394;-80.022;2023-08-31T01:45:43;97148.80;;;20.63;47.10
74334;BME280;62753;40.394;-80.022;2023-08-31T01:48:09;97146.35;;;20.06;46.91
74334;BME280;62753;40.394;-80.022;2023-08-31T01:50:34;97141.99;;;21.00;45.89
74334;BME280;62753;40.394;-80.022;2023-08-31T01:52:59;97144.51;;;20.16;48.65
74334;BME280;62753;40.394;-80.022;2023-08-31T01:55:24;97148.36;;;20.61;47.23
74334;BME280;62753;40.394;-80.022;2023-08-31T01:57:50;97141.06;;;20.71;46.76
74334;BME280;62753;40.394;-80.022;2023-08-31T02:00:16;97138.29;;;19.55;48.56
74334;BME280;62753;40.394;-80.022;2023-08-31T02:02:40;97137.49;;;21.08;46.16
74334;BME280;62753;40.394;-80.022;2023-08-31T02:05:06;97138.65;;;20.62;47.31
74334;BME280;62753;40.394;-80.022;2023-08-31T02:07:30;97143.21;;;21.53;46.01
74334;BME280;62753;40.394;-80.022;2023-08-31T02:10:00;97146.00;;;21.13;45.82
74334;BME280;62753;40.394;-80.022;2023-08-31T02:12:21;97145.01;;;21.06;46.78
74334;BME280;62753;40.394;-80.022;2023-08-31T02:14:46;97147.57;;;21.04;47.43
74334;BME280;62753;40.394;-80.022;2023-08-31T02:17:11;97149.02;;;20.06;49.78
74334;BME280;62753;40.394;-80.022;2023-08-31T02:19:36;97147.15;;;19.89;50.36
74334;BME280;62753;40.394;-80.022;2023-08-31T02:22:02;97146.94;;;20.27;49.38
74334;BME280;62753;40.394;-80.022;2023-08-31T02:24:27;97144.40;;;20.57;48.48
74334;BME280;62753;40.394;-80.022;2023-08-31T02:26:52;97147.39;;;21.33;47.59
74334;BME280;62753;40.394;-80.022;2023-08-31T02:29:17;97150.41;;;20.38;48.62
74334;BME280;62753;40.394;-80.022;2023-08-31T02:31:43;97154.34;;;20.69;47.34
74334;BME280;62753;40.394;-80.022;2023-08-31T02:34:08;97153.91;;;21.29;46.74
74334;BME280;62753;40.394;-80.022;2023-08-31T02:36:34;97156.44;;;21.09;46.64
74334;BME280;62753;40.394;-80.022;2023-08-31T02:38:58;97155.14;;;21.74;44.91
74334;BME280;62753;40.394;-80.022;2023-08-31T02:41:23;97157.10;;;22.27;44.48
74334;BME280;62753;40.394;-80.022;2023-08-31T02:43:50;97163.09;;;20.69;46.11
74334;BME280;62753;40.394;-80.022;2023-08-31T02:46:14;97168.16;;;22.14;43.41
74334;BME280;62753;40.394;-80.022;2023-08-31T02:48:39;97172.34;;;22.42;43.30
74334;BME280;62753;40.394;-80.022;2023-08-31T02:51:04;97178.43;;;20.81;45.90
74334;BME280;62753;40.394;-80.022;2023-08-31T02:53:30;97177.51;;;22.30;43.06
74334;BME280;62753;40.394;-80.022;2023-08-31T02:55:55;97177.74;;;22.41;42.83
74334;BME280;62753;40.394;-80.022;2023-08-31T02:58:20;97180.53;;;21.02;45.85
74334;BME280;62753;40.394;-80.022;2023-08-31T03:00:45;97187.96;;;21.32;45.08
74334;BME280;62753;40.394;-80.022;2023-08-31T03:03:11;97191.41;;;21.29;45.03
74334;BME280;62753;40.394;-80.022;2023-08-31T03:05:36;97193.66;;;20.55;46.71
74334;BME280;62753;40.394;-80.022;2023-08-31T03:08:01;97194.31;;;21.15;45.31
74334;BME280;62753;40.394;-80.022;2023-08-31T03:10:27;97202.70;;;19.84;48.67
74334;BME280;62753;40.394;-80.022;2023-08-31T03:12:52;97199.22;;;21.20;46.57
74334;BME280;62753;40.394;-80.022;2023-08-31T03:15:17;97205.07;;;20.26;47.23
74334;BME280;62753;40.394;-80.022;2023-08-31T03:17:42;97210.73;;;20.07;47.35
74334;BME280;62753;40.394;-80.022;2023-08-31T03:20:08;97212.15;;;20.88;45.97
74334;BME280;62753;40.394;-80.022;2023-08-31T03:22:32;97213.11;;;21.47;44.78
74334;BME280;62753;40.394;-80.022;2023-08-31T03:24:58;97214.23;;;20.92;44.98
74334;BME280;62753;40.394;-80.022;2023-08-31T03:27:24;97219.23;;;20.90;45.83
74334;BME280;62753;40.394;-80.022;2023-08-31T03:29:48;97226.41;;;22.22;43.08
74334;BME280;62753;40.394;-80.022;2023-08-31T03:32:13;97229.60;;;21.24;44.99
74334;BME280;62753;40.394;-80.022;2023-08-31T03:34:39;97229.46;;;22.40;43.24
74334;BME280;62753;40.394;-80.022;2023-08-31T03:37:04;97232.65;;;22.11;42.57
74334;BME280;62753;40.394;-80.022;2023-08-31T03:39:29;97235.26;;;22.03;42.36
74334;BME280;62753;40.394;-80.022;2023-08-31T03:41:54;97234.09;;;22.95;41.51
74334;BME280;62753;40.394;-80.022;2023-08-31T03:44:21;97231.96;;;22.35;41.74
74334;BME280;62753;40.394;-80.022;2023-08-31T03:46:44;97233.97;;;21.32;44.17
74334;BME280;62753;40.394;-80.022;2023-08-31T03:49:10;97236.34;;;22.30;42.89
74334;BME280;62753;40.394;-80.022;2023-08-31T03:51:35;97239.28;;;22.39;42.24
74334;BME280;62753;40.394;-80.022;2023-08-31T03:54:01;97242.28;;;22.33;41.97
74334;BME280;62753;40.394;-80.022;2023-08-31T03:56:26;97242.17;;;21.49;42.91
74334;BME280;62753;40.394;-80.022;2023-08-31T03:58:51;97246.70;;;22.00;42.84
74334;BME280;62753;40.394;-80.022;2023-08-31T04:01:16;97247.49;;;22.29;41.21
74334;BME280;62753;40.394;-80.022;2023-08-31T04:03:42;97250.17;;;22.81;40.21
74334;BME280;62753;40.394;-80.022;2023-08-31T04:06:06;97255.58;;;22.38;41.53
74334;BME280;62753;40.394;-80.022;2023-08-31T04:08:32;97260.68;;;22.74;40.09
74334;BME280;62753;40.394;-80.022;2023-08-31T04:10:57;97262.30;;;23.63;39.07
74334;BME280;62753;40.394;-80.022;2023-08-31T04:13:22;97263.24;;;23.10;39.99
74334;BME280;62753;40.394;-80.022;2023-08-31T04:15:47;97264.46;;;23.61;39.02
74334;BME280;62753;40.394;-80.022;2023-08-31T04:18:12;97264.78;;;22.63;40.53
74334;BME280;62753;40.394;-80.022;2023-08-31T04:20:38;97270.39;;;21.76;41.94
74334;BME280;62753;40.394;-80.022;2023-08-31T04:23:03;97266.84;;;21.17;43.46
74334;BME280;62753;40.394;-80.022;2023-08-31T04:25:29;97267.54;;;21.32;43.76
74334;BME280;62753;40.394;-80.022;2023-08-31T04:27:53;97269.52;;;22.00;42.47
74334;BME280;62753;40.394;-80.022;2023-08-31T04:30:19;97269.01;;;21.16;44.06
74334;BME280;62753;40.394;-80.022;2023-08-31T04:32:44;97272.69;;;21.68;43.14
74334;BME280;62753;40.394;-80.022;2023-08-31T04:35:09;97274.30;;;21.84;42.75
74334;BME280;62753;40.394;-80.022;2023-08-31T04:37:35;97273.55;;;22.58;41.28
74334;BME280;62753;40.394;-80.022;2023-08-31T04:40:00;97270.29;;;22.67;41.01
74334;BME280;62753;40.394;-80.022;2023-08-31T04:42:25;97270.08;;;24.26;37.82
74334;BME280;62753;40.394;-80.022;2023-08-31T04:44:50;97269.15;;;23.83;38.22
74334;BME280;62753;40.394;-80.022;2023-08-31T04:47:15;97271.31;;;23.83;38.41
74334;BME280;62753;40.394;-80.022;2023-08-31T04:49:41;97273.08;;;23.36;38.19
74334;BME280;62753;40.394;-80.022;2023-08-31T04:52:06;97278.43;;;23.46;39.06
74334;BME280;62753;40.394;-80.022;2023-08-31T04:54:31;97276.67;;;24.27;37.94
74334;BME280;62753;40.394;-80.022;2023-08-31T04:56:57;97273.83;;;23.74;38.94
74334;BME280;62753;40.394;-80.022;2023-08-31T04:59:21;97271.62;;;23.29;39.18
74334;BME280;62753;40.394;-80.022;2023-08-31T05:01:47;97274.43;;;23.99;38.61
74334;BME280;62753;40.394;-80.022;2023-08-31T05:04:12;97265.71;;;22.89;39.67
74334;BME280;62753;40.394;-80.022;2023-08-31T05:06:37;97264.29;;;22.83;40.61
74334;BME280;62753;40.394;-80.022;2023-08-31T05:09:02;97264.52;;;22.48;40.97
74334;BME280;62753;40.394;-80.022;2023-08-31T05:11:28;97261.43;;;22.48;41.52
74334;BME280;62753;40.394;-80.022;2023-08-31T05:13:53;97261.58;;;22.93;40.99
74334;BME280;62753;40.394;-80.022;2023-08-31T05:16:18;97262.59;;;23.03;40.51
74334;BME280;62753;40.394;-80.022;2023-08-31T05:18:43;97260.17;;;22.19;40.86
74334;BME280;62753;40.394;-80.022;2023-08-31T05:21:08;97253.66;;;22.43;40.63
74334;BME280;62753;40.394;-80.022;2023-08-31T05:23:34;97249.59;;;22.94;40.25
74334;BME280;62753;40.394;-80.022;2023-08-31T05:25:59;97243.90;;;22.43;41.53
74334;BME280;62753;40.394;-80.022;2023-08-31T05:28:24;97246.94;;;22.89;41.04
74334;BME280;62753;40.394;-80.022;2023-08-31T05:30:51;97240.65;;;22.95;41.05
74334;BME280;62753;40.394;-80.022;2023-08-31T05:33:14;97235.77;;;22.97;40.63
74334;BME280;62753;40.394;-80.022;2023-08-31T05:35:40;97237.51;;;22.54;41.17
74334;BME280;62753;40.394;-80.022;2023-08-31T05:38:05;97232.95;;;23.11;40.63
74334;BME280;62753;40.394;-80.022;2023-08-31T05:40:30;97233.72;;;22.68;41.14
74334;BME280;62753;40.394;-80.022;2023-08-31T05:42:56;97229.98;;;22.16;42.08
74334;BME280;62753;40.394;-80.022;2023-08-31T05:45:21;97229.54;;;22.96;40.52
74334;BME280;62753;40.394;-80.022;2023-08-31T05:47:46;97228.66;;;22.53;40.54
74334;BME280;62753;40.394;-80.022;2023-08-31T05:50:11;97235.26;;;21.37;43.12
74334;BME280;62753;40.394;-80.022;2023-08-31T05:52:36;97239.93;;;22.05;41.85
74334;BME280;62753;40.394;-80.022;2023-08-31T05:55:01;97243.31;;;23.68;39.18
74334;BME280;62753;40.394;-80.022;2023-08-31T05:57:27;97244.12;;;23.19;39.93
74334;BME280;62753;40.394;-80.022;2023-08-31T05:59:52;97240.06;;;23.50;39.17
74334;BME280;62753;40.394;-80.022;2023-08-31T06:02:17;97236.14;;;23.35;39.42
74334;BME280;62753;40.394;-80.022;2023-08-31T06:04:43;97235.80;;;23.33;39.50
74334;BME280;62753;40.394;-80.022;2023-08-31T06:07:08;97235.12;;;22.52;41.14
74334;BME280;62753;40.394;-80.022;2023-08-31T06:09:33;97230.36;;;22.54;41.19
74334;BME280;62753;40.394;-80.022;2023-08-31T06:11:58;97229.72;;;23.88;39.19
74334;BME280;62753;40.394;-80.022;2023-08-31T06:14:24;97231.80;;;23.17;40.18
74334;BME280;62753;40.394;-80.022;2023-08-31T06:16:49;97235.28;;;23.12;41.33
74334;BME280;62753;40.394;-80.022;2023-08-31T06:19:14;97237.16;;;22.85;40.38
74334;BME280;62753;40.394;-80.022;2023-08-31T06:21:39;97232.77;;;23.29;39.58
74334;BME280;62753;40.394;-80.022;2023-08-31T06:24:05;97234.91;;;22.94;40.24
74334;BME280;62753;40.394;-80.022;2023-08-31T06:26:30;97232.10;;;23.49;39.35
74334;BME280;62753;40.394;-80.022;2023-08-31T06:28:55;97236.25;;;22.74;41.29
74334;BME280;62753;40.394;-80.022;2023-08-31T06:31:20;97234.81;;;23.46;40.23
74334;BME280;62753;40.394;-80.022;2023-08-31T06:33:45;97233.62;;;23.16;40.82
74334;BME280;62753;40.394;-80.022;2023-08-31T06:36:11;97231.57;;;23.08;41.46
74334;BME280;62753;40.394;-80.022;2023-08-31T06:38:36;97228.73;;;23.27;39.74
74334;BME280;62753;40.394;-80.022;2023-08-31T06:41:02;97229.95;;;22.47;42.17
74334;BME280;62753;40.394;-80.022;2023-08-31T06:43:27;97235.26;;;23.05;40.48
74334;BME280;62753;40.394;-80.022;2023-08-31T06:45:52;97234.46;;;23.10;39.91
74334;BME280;62753;40.394;-80.022;2023-08-31T06:48:17;97234.31;;;22.61;41.93
74334;BME280;62753;40.394;-80.022;2023-08-31T06:50:42;97231.63;;;22.51;41.77
74334;BME280;62753;40.394;-80.022;2023-08-31T06:53:07;97230.16;;;23.20;40.77
74334;BME280;62753;40.394;-80.022;2023-08-31T06:55:32;97231.45;;;22.11;42.96
74334;BME280;62753;40.394;-80.022;2023-08-31T06:57:58;97227.95;;;22.24;42.82
74334;BME280;62753;40.394;-80.022;2023-08-31T07:00:23;97230.05;;;22.62;42.24
74334;BME280;62753;40.394;-80.022;2023-08-31T07:02:48;97235.30;;;23.49;40.51
74334;BME280;62753;40.394;-80.022;2023-08-31T07:05:14;97234.12;;;22.23;42.69
74334;BME280;62753;40.394;-80.022;2023-08-31T07:07:38;97236.20;;;22.18;42.24
74334;BME280;62753;40.394;-80.022;2023-08-31T07:10:05;97231.96;;;22.90;41.06
74334;BME280;62753;40.394;-80.022;2023-08-31T07:12:29;97230.03;;;22.08;42.57
74334;BME280;62753;40.394;-80.022;2023-08-31T07:14:54;97230.51;;;21.76;44.12
74334;BME280;62753;40.394;-80.022;2023-08-31T07:17:20;97224.62;;;20.93;46.08
74334;BME280;62753;40.394;-80.022;2023-08-31T07:19:45;97220.59;;;20.26;46.48
74334;BME280;62753;40.394;-80.022;2023-08-31T07:22:10;97215.34;;;21.81;44.20
74334;BME280;62753;40.394;-80.022;2023-08-31T07:24:35;97210.09;;;20.94;45.67
74334;BME280;62753;40.394;-80.022;2023-08-31T07:27:02;97208.21;;;21.08;45.52
74334;BME280;62753;40.394;-80.022;2023-08-31T07:29:26;97208.60;;;21.74;43.84
74334;BME280;62753;40.394;-80.022;2023-08-31T07:31:50;97205.64;;;21.55;44.23
74334;BME280;62753;40.394;-80.022;2023-08-31T07:34:16;97200.01;;;22.19;43.11
74334;BME280;62753;40.394;-80.022;2023-08-31T07:36:42;97200.60;;;21.87;44.11
74334;BME280;62753;40.394;-80.022;2023-08-31T07:39:07;97194.07;;;20.80;46.20
74334;BME280;62753;40.394;-80.022;2023-08-31T07:41:32;97188.51;;;21.33;45.64
74334;BME280;62753;40.394;-80.022;2023-08-31T07:43:58;97193.83;;;20.05;48.70
74334;BME280;62753;40.394;-80.022;2023-08-31T07:46:23;97189.65;;;21.34;45.91
74334;BME280;62753;40.394;-80.022;2023-08-31T07:48:49;97194.69;;;21.84;44.67
74334;BME280;62753;40.394;-80.022;2023-08-31T07:51:14;97192.76;;;21.70;44.67
74334;BME280;62753;40.394;-80.022;2023-08-31T07:53:39;97191.85;;;21.42;44.92
74334;BME280;62753;40.394;-80.022;2023-08-31T07:56:05;97194.19;;;20.67;46.19
74334;BME280;62753;40.394;-80.022;2023-08-31T07:58:29;97186.46;;;21.26;45.21
74334;BME280;62753;40.394;-80.022;2023-08-31T08:00:55;97187.86;;;22.37;43.69
74334;BME280;62753;40.394;-80.022;2023-08-31T08:03:20;97184.37;;;21.24;45.36
74334;BME280;62753;40.394;-80.022;2023-08-31T08:05:45;97183.39;;;21.76;44.05
74334;BME280;62753;40.394;-80.022;2023-08-31T08:08:11;97180.06;;;22.61;43.56
74334;BME280;62753;40.394;-80.022;2023-08-31T08:10:36;97178.54;;;21.30;45.33
74334;BME280;62753;40.394;-80.022;2023-08-31T08:13:01;97174.91;;;21.47;45.00
74334;BME280;62753;40.394;-80.022;2023-08-31T08:15:26;97172.23;;;20.73;46.36
74334;BME280;62753;40.394;-80.022;2023-08-31T08:17:51;97171.07;;;20.37;46.91
74334;BME280;62753;40.394;-80.022;2023-08-31T08:20:17;97179.27;;;20.17;47.75
74334;BME280;62753;40.394;-80.022;2023-08-31T08:22:42;97182.72;;;19.44;49.41
74334;BME280;62753;40.394;-80.022;2023-08-31T08:25:08;97182.61;;;20.10;48.36
74334;BME280;62753;40.394;-80.022;2023-08-31T08:27:32;97179.60;;;20.11;48.54
74334;BME280;62753;40.394;-80.022;2023-08-31T08:29:58;97175.02;;;20.65;47.11
74334;BME280;62753;40.394;-80.022;2023-08-31T08:32:23;97174.93;;;20.70;47.03
74334;BME280;62753;40.394;-80.022;2023-08-31T08:34:49;97174.45;;;21.01;46.59
74334;BME280;62753;40.394;-80.022;2023-08-31T08:37:14;97178.61;;;20.11;48.32
74334;BME280;62753;40.394;-80.022;2023-08-31T08:39:39;97179.40;;;20.51;47.59
74334;BME280;62753;40.394;-80.022;2023-08-31T08:42:07;97175.30;;;20.86;46.64
74334;BME280;62753;40.394;-80.022;2023-08-31T08:44:33;97178.76;;;20.95;46.60
74334;BME280;62753;40.394;-80.022;2023-08-31T08:46:58;97181.95;;;20.76;47.26
74334;BME280;62753;40.394;-80.022;2023-08-31T08:49:22;97180.47;;;20.60;47.08
74334;BME280;62753;40.394;-80.022;2023-08-31T08:51:46;97180.46;;;20.57;47.06
74334;BME280;62753;40.394;-80.022;2023-08-31T08:54:12;97183.61;;;20.28;47.87
74334;BME280;62753;40.394;-80.022;2023-08-31T08:56:37;97185.67;;;20.79;47.06
74334;BME280;62753;40.394;-80.022;2023-08-31T08:59:03;97182.23;;;21.27;45.24
74334;BME280;62753;40.394;-80.022;2023-08-31T09:01:29;97191.60;;;19.49;48.46
74334;BME280;62753;40.394;-80.022;2023-08-31T09:03:54;97195.52;;;20.43;47.20
74334;BME280;62753;40.394;-80.022;2023-08-31T09:06:20;97193.15;;;20.98;46.00
74334;BME280;62753;40.394;-80.022;2023-08-31T09:08:44;97195.23;;;21.54;44.90
74334;BME280;62753;40.394;-80.022;2023-08-31T09:13:34;97198.73;;;21.07;44.34
74334;BME280;62753;40.394;-80.022;2023-08-31T09:16:00;97200.77;;;21.84;43.14
74334;BME280;62753;40.394;-80.022;2023-08-31T09:18:26;97198.28;;;21.86;43.48
74334;BME280;62753;40.394;-80.022;2023-08-31T09:20:51;97201.39;;;21.38;44.11
74334;BME280;62753;40.394;-80.022;2023-08-31T09:23:17;97202.37;;;21.07;44.95
74334;BME280;62753;40.394;-80.022;2023-08-31T09:25:43;97204.77;;;20.95;43.74
74334;BME280;62753;40.394;-80.022;2023-08-31T09:28:06;97200.61;;;21.22;44.40
74334;BME280;62753;40.394;-80.022;2023-08-31T09:30:35;97206.47;;;21.29;43.78
74334;BME280;62753;40.394;-80.022;2023-08-31T09:32:57;97205.37;;;21.47;43.74
74334;BME280;62753;40.394;-80.022;2023-08-31T09:35:23;97210.61;;;20.86;44.96
74334;BME280;62753;40.394;-80.022;2023-08-31T09:37:54;97214.04;;;21.06;44.34
74334;BME280;62753;40.394;-80.022;2023-08-31T09:40:15;97214.96;;;21.06;43.58
74334;BME280;62753;40.394;-80.022;2023-08-31T09:42:39;97221.60;;;21.55;42.87
74334;BME280;62753;40.394;-80.022;2023-08-31T09:45:06;97223.38;;;21.41;42.69
74334;BME280;62753;40.394;-80.022;2023-08-31T09:47:30;97222.01;;;21.76;42.70
74334;BME280;62753;40.394;-80.022;2023-08-31T09:49:55;97221.84;;;20.97;43.59
74334;BME280;62753;40.394;-80.022;2023-08-31T09:52:21;97225.46;;;19.91;46.16
74334;BME280;62753;40.394;-80.022;2023-08-31T09:54:47;97228.34;;;19.48;47.62
74334;BME280;62753;40.394;-80.022;2023-08-31T09:57:12;97231.14;;;19.50;47.16
74334;BME280;62753;40.394;-80.022;2023-08-31T09:59:38;97236.17;;;19.86;47.07
74334;BME280;62753;40.394;-80.022;2023-08-31T10:02:02;97236.27;;;19.96;46.74
74334;BME280;62753;40.394;-80.022;2023-08-31T10:04:29;97232.03;;;18.89;47.79
74334;BME280;62753;40.394;-80.022;2023-08-31T10:06:52;97236.21;;;20.12;46.83
74334;BME280;62753;40.394;-80.022;2023-08-31T10:09:18;97236.94;;;19.57;47.44
74334;BME280;62753;40.394;-80.022;2023-08-31T10:11:44;97241.67;;;19.82;46.63
74334;BME280;62753;40.394;-80.022;2023-08-31T10:14:09;97243.81;;;18.88;49.03
74334;BME280;62753;40.394;-80.022;2023-08-31T10:16:34;97254.11;;;20.03;46.84
74334;BME280;62753;40.394;-80.022;2023-08-31T10:18:59;97259.25;;;20.77;44.88
74334;BME280;62753;40.394;-80.022;2023-08-31T10:21:25;97268.42;;;21.27;44.43
74334;BME280;62753;40.394;-80.022;2023-08-31T10:23:50;97272.67;;;19.15;47.26
74334;BME280;62753;40.394;-80.022;2023-08-31T10:26:23;97276.34;;;20.52;44.26
74334;BME280;62753;40.394;-80.022;2023-08-31T10:28:42;97277.92;;;19.78;46.11
74334;BME280;62753;40.394;-80.022;2023-08-31T10:31:07;97273.41;;;20.79;44.21
74334;BME280;62753;40.394;-80.022;2023-08-31T10:33:32;97277.78;;;20.06;45.25
74334;BME280;62753;40.394;-80.022;2023-08-31T10:35:57;97282.77;;;20.41;44.60
74334;BME280;62753;40.394;-80.022;2023-08-31T10:38:26;97287.58;;;20.59;43.29
74334;BME280;62753;40.394;-80.022;2023-08-31T10:43:17;97292.56;;;20.34;43.42
74334;BME280;62753;40.394;-80.022;2023-08-31T10:45:43;97293.11;;;20.44;43.73
74334;BME280;62753;40.394;-80.022;2023-08-31T10:48:07;97292.45;;;20.43;43.80
74334;BME280;62753;40.394;-80.022;2023-08-31T10:50:29;97295.27;;;20.84;42.42
74334;BME280;62753;40.394;-80.022;2023-08-31T10:52:55;97300.05;;;20.47;43.15
74334;BME280;62753;40.394;-80.022;2023-08-31T10:55:20;97302.16;;;20.67;42.39
74334;BME280;62753;40.394;-80.022;2023-08-31T10:57:45;97301.56;;;21.04;42.03
74334;BME280;62753;40.394;-80.022;2023-08-31T11:00:11;97303.69;;;21.07;41.79
74334;BME280;62753;40.394;-80.022;2023-08-31T11:02:37;97313.52;;;20.38;42.76
74334;BME280;62753;40.394;-80.022;2023-08-31T11:05:04;97317.96;;;20.77;42.07
74334;BME280;62753;40.394;-80.022;2023-08-31T11:07:27;97321.50;;;20.87;42.07
74334;BME280;62753;40.394;-80.022;2023-08-31T11:09:52;97330.48;;;21.04;41.45
74334;BME280;62753;40.394;-80.022;2023-08-31T11:12:17;97333.95;;;20.81;43.04
74334;BME280;62753;40.394;-80.022;2023-08-31T11:14:42;97333.95;;;20.65;42.26
74334;BME280;62753;40.394;-80.022;2023-08-31T11:17:09;97339.27;;;20.05;43.43
74334;BME280;62753;40.394;-80.022;2023-08-31T11:19:34;97337.11;;;21.21;41.07
74334;BME280;62753;40.394;-80.022;2023-08-31T11:22:01;97346.50;;;21.33;40.92
74334;BME280;62753;40.394;-80.022;2023-08-31T11:24:24;97355.31;;;21.23;40.75
74334;BME280;62753;40.394;-80.022;2023-08-31T11:26:50;97358.10;;;20.79;41.58
74334;BME280;62753;40.394;-80.022;2023-08-31T11:29:15;97363.86;;;20.24;42.46
74334;BME280;62753;40.394;-80.022;2023-08-31T11:31:40;97364.17;;;20.59;41.47
74334;BME280;62753;40.394;-80.022;2023-08-31T11:34:06;97365.96;;;19.75;44.23
74334;BME280;62753;40.394;-80.022;2023-08-31T11:36:31;97372.33;;;20.39;42.65
74334;BME280;62753;40.394;-80.022;2023-08-31T11:38:56;97373.07;;;20.77;41.72
74334;BME280;62753;40.394;-80.022;2023-08-31T11:41:21;97378.01;;;20.92;41.66
74334;BME280;62753;40.394;-80.022;2023-08-31T11:43:47;97380.94;;;21.65;40.36
74334;BME280;62753;40.394;-80.022;2023-08-31T11:46:12;97387.31;;;19.90;42.68
74334;BME280;62753;40.394;-80.022;2023-08-31T11:48:37;97391.91;;;20.13;42.82
74334;BME280;62753;40.394;-80.022;2023-08-31T11:51:03;97394.11;;;19.84;44.09
74334;BME280;62753;40.394;-80.022;2023-08-31T11:53:28;97393.41;;;20.04;42.80
74334;BME280;62753;40.394;-80.022;2023-08-31T11:55:54;97392.76;;;20.43;42.25
74334;BME280;62753;40.394;-80.022;2023-08-31T11:58:18;97395.76;;;21.08;41.07
74334;BME280;62753;40.394;-80.022;2023-08-31T12:00:44;97398.11;;;20.82;40.77
74334;BME280;62753;40.394;-80.022;2023-08-31T12:03:10;97398.47;;;20.37;42.42
74334;BME280;62753;40.394;-80.022;2023-08-31T12:08:00;97409.72;;;20.70;41.47
74334;BME280;62753;40.394;-80.022;2023-08-31T12:10:26;97410.77;;;20.75;41.58
74334;BME280;62753;40.394;-80.022;2023-08-31T12:12:51;97415.20;;;21.25;40.56
74334;BME280;62753;40.394;-80.022;2023-08-31T12:15:16;97415.90;;;21.08;40.77
74334;BME280;62753;40.394;-80.022;2023-08-31T12:17:41;97413.48;;;21.03;40.47
74334;BME280;62753;40.394;-80.022;2023-08-31T12:20:08;97419.18;;;21.04;40.06
74334;BME280;62753;40.394;-80.022;2023-08-31T12:22:32;97415.19;;;19.95;42.86
74334;BME280;62753;40.394;-80.022;2023-08-31T12:24:58;97415.66;;;20.23;42.74
74334;BME280;62753;40.394;-80.022;2023-08-31T12:27:22;97417.68;;;19.99;43.05
74334;BME280;62753;40.394;-80.022;2023-08-31T12:29:48;97421.20;;;20.47;41.45
74334;BME280;62753;40.394;-80.022;2023-08-31T12:32:13;97422.72;;;19.74;43.35
74334;BME280;62753;40.394;-80.022;2023-08-31T12:34:38;97425.61;;;20.36;42.25
74334;BME280;62753;40.394;-80.022;2023-08-31T12:37:04;97421.95;;;20.21;42.27